createdAt,value
2019-03-09T00:00:46.022Z,7.63
2019-03-09T00:03:16.520Z,8.00
2019-03-09T00:05:46.919Z,8.00
2019-03-09T00:08:17.439Z,8.03
2019-03-09T00:10:47.956Z,7.70
2019-03-09T00:13:18.530Z,6.90
2019-03-09T00:15:48.936Z,6.17
2019-03-09T00:18:19.359Z,6.80
2019-03-09T00:20:49.801Z,6.77
2019-03-09T00:23:45.278Z,6.43
2019-03-09T00:26:34.420Z,5.63
2019-03-09T00:29:12.887Z,5.97
2019-03-09T00:31:48.294Z,6.60
2019-03-09T00:34:18.658Z,6.60
2019-03-09T00:36:49.051Z,6.70
2019-03-09T00:39:19.521Z,6.63
2019-03-09T00:41:50.142Z,6.80
2019-03-09T00:44:20.505Z,7.17
2019-03-09T00:46:51.014Z,7.17
2019-03-09T00:49:21.519Z,6.37
2019-03-09T00:51:51.987Z,5.97
2019-03-09T00:54:22.362Z,5.60
2019-03-09T00:56:53.155Z,6.03
2019-03-09T00:59:23.532Z,5.43
2019-03-09T01:01:53.968Z,5.13
2019-03-09T01:04:24.400Z,5.63
2019-03-09T01:06:54.782Z,5.87
2019-03-09T01:09:25.342Z,5.27
2019-03-09T01:11:55.788Z,5.27
2019-03-09T01:14:26.379Z,4.90
2019-03-09T01:16:56.873Z,5.30
2019-03-09T01:19:27.373Z,4.80
2019-03-09T01:21:57.815Z,4.87
2019-03-09T01:24:28.203Z,4.80
2019-03-09T01:26:58.760Z,4.97
2019-03-09T01:29:29.325Z,4.33
2019-03-09T01:31:59.718Z,4.30
2019-03-09T01:34:30.545Z,4.17
2019-03-09T01:37:00.964Z,4.50
2019-03-09T01:39:31.672Z,3.60
2019-03-09T01:42:02.125Z,4.13
2019-03-09T01:44:32.544Z,3.90
2019-03-09T01:47:03.162Z,4.20
2019-03-09T01:49:33.593Z,4.00
2019-03-09T01:52:04.121Z,3.80
2019-03-09T01:54:34.798Z,4.10
2019-03-09T01:57:05.192Z,3.70
2019-03-09T01:59:35.688Z,4.40
2019-03-09T02:02:06.162Z,4.37
2019-03-09T02:04:36.574Z,3.80
2019-03-09T02:07:07.010Z,4.20
2019-03-09T02:09:37.382Z,4.00
2019-03-09T02:12:07.903Z,4.00
2019-03-09T02:14:38.360Z,3.90
2019-03-09T02:17:08.706Z,4.20
2019-03-09T02:19:39.152Z,4.00
2019-03-09T02:22:09.744Z,4.00
2019-03-09T02:24:40.182Z,3.60
2019-03-09T02:27:10.914Z,3.80
2019-03-09T02:29:41.422Z,4.10
2019-03-09T02:32:11.771Z,4.93
2019-03-09T02:34:42.206Z,3.97
2019-03-09T02:37:12.672Z,4.20
2019-03-09T02:39:47.981Z,4.43
2019-03-09T02:42:18.594Z,4.30
2019-03-09T02:44:48.954Z,3.80
2019-03-09T02:47:19.441Z,3.73
2019-03-09T02:49:49.919Z,4.13
2019-03-09T02:52:20.276Z,4.07
2019-03-09T02:54:50.564Z,3.97
2019-03-09T02:57:20.974Z,4.00
2019-03-09T02:59:51.401Z,4.03
2019-03-09T03:02:28.545Z,4.00
2019-03-09T03:04:59.082Z,4.23
2019-03-09T03:07:29.530Z,4.13
2019-03-09T03:09:59.979Z,4.93
2019-03-09T03:12:30.396Z,4.70
2019-03-09T03:15:01.029Z,4.70
2019-03-09T03:17:31.453Z,3.73
2019-03-09T03:20:01.823Z,4.37
2019-03-09T03:22:32.362Z,4.00
2019-03-09T03:25:02.985Z,4.13
2019-03-09T03:27:33.618Z,3.93
2019-03-09T03:30:03.952Z,4.20
2019-03-09T03:32:36.621Z,4.10
2019-03-09T03:35:07.977Z,4.17
2019-03-09T03:37:38.535Z,4.53
2019-03-09T03:40:09.436Z,4.13
2019-03-09T03:42:40.138Z,3.80
2019-03-09T03:45:11.105Z,4.37
2019-03-09T03:47:41.671Z,3.80
2019-03-09T03:50:12.575Z,4.23
2019-03-09T03:52:43.051Z,3.90
2019-03-09T03:55:14.062Z,3.60
2019-03-09T03:57:44.506Z,3.43
2019-03-09T04:00:15.298Z,3.77
2019-03-09T04:02:45.836Z,3.60
2019-03-09T04:05:16.557Z,4.07
2019-03-09T04:07:47.314Z,4.30
2019-03-09T04:10:18.037Z,3.87
2019-03-09T04:12:48.966Z,4.17
2019-03-09T04:15:19.504Z,3.87
2019-03-09T04:17:49.926Z,4.03
2019-03-09T04:20:23.309Z,3.93
2019-03-09T04:22:53.853Z,3.87
2019-03-09T04:25:24.473Z,4.20
2019-03-09T04:27:55.192Z,3.93
2019-03-09T04:30:25.746Z,3.90
2019-03-09T04:32:57.580Z,4.30
2019-03-09T04:35:28.230Z,4.00
2019-03-09T04:37:58.740Z,4.40
2019-03-09T04:40:29.379Z,4.37
2019-03-09T04:43:00.080Z,4.40
2019-03-09T04:45:30.700Z,4.17
2019-03-09T04:48:01.216Z,4.17
2019-03-09T04:50:31.847Z,4.10
2019-03-09T04:53:02.438Z,4.20
2019-03-09T04:55:32.841Z,4.33
2019-03-09T04:58:03.439Z,4.10
2019-03-09T05:00:33.817Z,4.43
2019-03-09T05:03:04.310Z,4.20
2019-03-09T05:05:34.720Z,3.73
2019-03-09T05:08:34.665Z,4.23
2019-03-09T05:11:09.543Z,4.60
2019-03-09T05:14:12.917Z,4.60
2019-03-09T05:16:43.591Z,4.40
2019-03-09T05:19:14.066Z,6.13
2019-03-09T05:21:44.711Z,14.43
2019-03-09T05:24:15.132Z,10.70
2019-03-09T05:26:46.053Z,6.50
2019-03-09T05:29:16.581Z,4.60
2019-03-09T05:31:46.976Z,4.37
2019-03-09T05:34:17.188Z,4.80
2019-03-09T05:36:47.866Z,5.00
2019-03-09T05:39:18.455Z,4.83
2019-03-09T05:41:49.160Z,5.63
2019-03-09T05:44:19.649Z,5.50
2019-03-09T05:46:50.001Z,5.17
2019-03-09T05:49:20.513Z,4.97
2019-03-09T05:52:26.179Z,4.83
2019-03-09T05:54:56.458Z,4.30
2019-03-09T05:57:26.815Z,4.63
2019-03-09T05:59:57.328Z,5.17
2019-03-09T06:02:27.862Z,4.90
2019-03-09T06:04:58.284Z,5.50
2019-03-09T06:07:28.555Z,5.07
2019-03-09T06:09:59.010Z,4.60
2019-03-09T06:12:29.468Z,5.00
2019-03-09T06:14:59.740Z,4.70
2019-03-09T06:17:30.099Z,7.43
2019-03-09T06:20:00.485Z,4.97
2019-03-09T06:22:30.909Z,5.03
2019-03-09T06:25:01.401Z,4.50
2019-03-09T06:27:32.960Z,4.20
2019-03-09T06:30:03.416Z,4.87
2019-03-09T06:33:09.017Z,4.17
2019-03-09T06:35:39.370Z,4.17
2019-03-09T06:38:32.866Z,4.60
2019-03-09T06:41:03.450Z,4.70
2019-03-09T06:43:33.903Z,4.73
2019-03-09T06:46:04.128Z,4.40
2019-03-09T06:48:34.489Z,4.30
2019-03-09T06:51:04.852Z,5.37
2019-03-09T06:53:37.620Z,7.60
2019-03-09T06:56:08.194Z,10.07
2019-03-09T06:58:38.547Z,11.07
2019-03-09T07:01:22.733Z,9.17
2019-03-09T07:03:53.295Z,5.07
2019-03-09T07:06:24.499Z,4.90
2019-03-09T07:08:54.914Z,4.60
2019-03-09T07:11:25.324Z,4.60
2019-03-09T07:13:55.704Z,5.20
2019-03-09T07:16:26.169Z,6.57
2019-03-09T07:18:57.640Z,6.40
2019-03-09T07:21:28.084Z,5.90
2019-03-09T07:23:58.490Z,6.03
2019-03-09T07:26:29.131Z,5.70
2019-03-09T07:28:59.587Z,5.60
2019-03-09T07:31:29.851Z,5.30
2019-03-09T07:34:28.103Z,5.33
2019-03-09T07:36:58.501Z,5.43
2019-03-09T07:39:28.998Z,4.37
2019-03-09T07:41:59.444Z,4.10
2019-03-09T07:44:29.823Z,4.30
2019-03-09T07:47:00.215Z,4.47
2019-03-09T07:49:30.575Z,4.60
2019-03-09T07:52:01.036Z,4.17
2019-03-09T07:54:31.531Z,6.40
2019-03-09T07:57:01.888Z,7.73
2019-03-09T07:59:32.185Z,6.27
2019-03-09T08:02:02.585Z,4.70
2019-03-09T08:04:33.065Z,4.90
2019-03-09T08:07:03.395Z,4.50
2019-03-09T08:09:33.694Z,4.50
2019-03-09T08:12:04.283Z,4.13
2019-03-09T08:14:34.762Z,4.10
2019-03-09T08:17:05.145Z,4.63
2019-03-09T08:19:35.349Z,4.40
2019-03-09T08:22:05.740Z,4.97
2019-03-09T08:24:36.000Z,4.70
2019-03-09T08:27:06.077Z,4.60
2019-03-09T08:29:36.605Z,4.73
2019-03-09T08:32:06.846Z,4.50
2019-03-09T08:34:37.054Z,4.40
2019-03-09T08:37:07.527Z,4.10
2019-03-09T08:39:38.002Z,4.50
2019-03-09T08:42:08.522Z,4.70
2019-03-09T08:44:38.925Z,4.63
2019-03-09T08:47:09.261Z,4.40
2019-03-09T08:49:39.563Z,4.40
2019-03-09T08:52:09.838Z,5.13
2019-03-09T08:54:40.175Z,5.00
2019-03-09T08:57:10.656Z,5.13
2019-03-09T08:59:41.093Z,4.37
2019-03-09T09:02:11.399Z,4.70
2019-03-09T09:04:41.869Z,4.37
2019-03-09T09:07:12.252Z,4.67
2019-03-09T09:09:42.623Z,5.03
2019-03-09T09:12:13.092Z,5.57
2019-03-09T09:14:43.314Z,5.00
2019-03-09T09:17:13.576Z,4.93
2019-03-09T09:19:43.839Z,5.20
2019-03-09T09:22:14.262Z,4.80
2019-03-09T09:24:44.546Z,4.60
2019-03-09T09:27:14.771Z,5.03
2019-03-09T09:29:45.025Z,4.80
2019-03-09T09:32:15.390Z,4.22
2019-03-09T09:34:45.709Z,4.90
2019-03-09T09:37:16.046Z,4.78
2019-03-09T09:39:46.435Z,5.15
2019-03-09T09:42:16.834Z,4.85
2019-03-09T09:44:47.140Z,5.25
2019-03-09T09:47:17.311Z,4.55
2019-03-09T09:49:47.708Z,4.55
2019-03-09T09:52:17.978Z,4.83
2019-03-09T09:54:48.054Z,4.58
2019-03-09T09:57:18.435Z,5.08
2019-03-09T09:59:48.501Z,5.42
2019-03-09T10:02:18.934Z,4.70
2019-03-09T10:04:49.325Z,4.72
2019-03-09T10:07:19.622Z,4.22
2019-03-09T10:09:49.455Z,4.28
2019-03-09T10:12:19.948Z,4.60
2019-03-09T10:14:50.109Z,5.47
2019-03-09T10:17:19.962Z,5.65
2019-03-09T10:19:50.238Z,5.08
2019-03-09T10:22:20.492Z,3.50
2019-03-09T10:24:50.756Z,3.80
2019-03-09T10:27:21.042Z,4.20
2019-03-09T10:29:51.051Z,4.28
2019-03-09T10:32:20.959Z,4.62
2019-03-09T10:34:51.455Z,4.47
2019-03-09T10:37:21.798Z,4.10
2019-03-09T10:39:51.952Z,4.22
2019-03-09T10:42:22.493Z,3.52
2019-03-09T10:44:53.039Z,4.55
2019-03-09T10:47:23.481Z,4.10
2019-03-09T10:49:53.454Z,3.90
2019-03-09T10:52:23.242Z,3.92
2019-03-09T10:54:53.629Z,4.45
2019-03-09T10:57:23.893Z,4.65
2019-03-09T10:59:53.631Z,4.15
2019-03-09T11:02:23.659Z,3.75
2019-03-09T11:04:53.635Z,4.08
2019-03-09T11:07:23.721Z,5.95
2019-03-09T11:09:53.415Z,3.95
2019-03-09T11:12:25.090Z,3.50
2019-03-09T11:14:54.675Z,3.50
2019-03-09T11:17:24.740Z,4.00
2019-03-09T11:19:54.396Z,4.55
2019-03-09T11:22:24.028Z,3.80
2019-03-09T11:25:03.158Z,4.83
2019-03-09T11:27:26.577Z,4.28
2019-03-09T11:29:57.025Z,3.60
2019-03-09T11:32:27.333Z,5.20
2019-03-09T11:34:57.677Z,3.90
2019-03-09T11:37:28.078Z,3.35
2019-03-09T11:39:58.595Z,3.70
2019-03-09T11:42:28.832Z,3.35
2019-03-09T11:44:59.174Z,3.50
2019-03-09T11:47:29.664Z,3.22
2019-03-09T11:50:00.117Z,4.20
2019-03-09T11:52:30.632Z,3.67
2019-03-09T11:55:01.609Z,3.20
2019-03-09T11:57:32.088Z,3.20
2019-03-09T12:00:02.897Z,3.00
2019-03-09T12:02:38.776Z,3.40
2019-03-09T12:05:05.330Z,3.80
2019-03-09T12:07:35.712Z,3.35
2019-03-09T12:10:06.319Z,3.40
2019-03-09T12:12:36.671Z,2.85
2019-03-09T12:15:07.202Z,3.35
2019-03-09T12:17:37.440Z,3.40
2019-03-09T12:20:08.364Z,3.05
2019-03-09T12:22:38.797Z,3.40
2019-03-09T12:25:09.922Z,3.00
2019-03-09T12:27:40.183Z,3.10
2019-03-09T12:30:12.445Z,3.03
2019-03-09T12:32:42.880Z,2.80
2019-03-09T12:35:13.329Z,2.90
2019-03-09T12:37:43.708Z,3.03
2019-03-09T12:40:15.692Z,2.70
2019-03-09T12:42:46.210Z,2.70
2019-03-09T12:45:17.043Z,2.83
2019-03-09T12:47:47.391Z,2.90
2019-03-09T12:50:18.530Z,2.93
2019-03-09T12:52:48.928Z,3.73
2019-03-09T12:55:19.228Z,3.63
2019-03-09T12:57:49.592Z,2.90
2019-03-09T13:00:20.045Z,3.07
2019-03-09T13:02:50.739Z,3.03
2019-03-09T13:05:21.159Z,3.10
2019-03-09T13:07:51.091Z,3.60
2019-03-09T13:10:21.678Z,3.20
2019-03-09T13:12:51.963Z,3.60
2019-03-09T13:15:22.339Z,5.50
2019-03-09T13:17:52.893Z,5.60
2019-03-09T13:20:23.323Z,3.27
2019-03-09T13:22:53.348Z,3.07
2019-03-09T13:25:23.556Z,2.93
2019-03-09T13:27:53.996Z,3.97
2019-03-09T13:30:24.476Z,7.40
2019-03-09T13:32:54.861Z,10.18
2019-03-09T13:35:25.243Z,15.55
2019-03-09T13:37:55.531Z,10.90
2019-03-09T13:40:25.998Z,5.97
2019-03-09T13:42:56.137Z,9.73
2019-03-09T13:45:26.514Z,3.23
2019-03-09T13:47:56.798Z,5.30
2019-03-09T13:50:26.840Z,5.00
2019-03-09T13:52:57.311Z,4.40
2019-03-09T13:55:27.453Z,3.03
2019-03-09T13:57:57.508Z,9.73
2019-03-09T14:00:27.967Z,4.43
2019-03-09T14:02:58.422Z,5.67
2019-03-09T14:05:28.861Z,5.10
2019-03-09T14:07:59.189Z,4.37
2019-03-09T14:10:29.524Z,4.20
2019-03-09T14:12:59.945Z,4.17
2019-03-09T14:15:30.466Z,4.23
2019-03-09T14:18:00.703Z,4.80
2019-03-09T14:20:31.003Z,4.77
2019-03-09T14:23:01.513Z,6.70
2019-03-09T14:25:31.868Z,4.93
2019-03-09T14:28:02.100Z,5.07
2019-03-09T14:30:32.517Z,4.47
2019-03-09T14:33:02.762Z,5.77
2019-03-09T14:35:32.983Z,6.17
2019-03-09T14:38:03.395Z,5.87
2019-03-09T14:40:33.719Z,6.13
2019-03-09T14:43:04.132Z,6.20
2019-03-09T14:45:34.438Z,7.20
2019-03-09T14:48:04.895Z,6.00
2019-03-09T14:50:35.236Z,6.53
2019-03-09T14:53:05.511Z,5.73
2019-03-09T14:55:35.926Z,6.43
2019-03-09T14:58:06.304Z,5.37
2019-03-09T15:00:36.792Z,5.53
2019-03-09T15:03:07.469Z,5.33
2019-03-09T15:05:37.766Z,6.13
2019-03-09T15:08:08.247Z,5.87
2019-03-09T15:10:38.661Z,4.97
2019-03-09T15:13:09.186Z,4.90
2019-03-09T15:15:39.631Z,4.80
2019-03-09T15:18:09.938Z,5.57
2019-03-09T15:20:40.281Z,4.60
2019-03-09T15:23:10.978Z,5.37
2019-03-09T15:25:41.396Z,4.90
2019-03-09T15:28:11.630Z,4.67
2019-03-09T15:30:42.074Z,6.70
2019-03-09T15:33:12.510Z,7.10
2019-03-09T15:35:42.912Z,7.60
2019-03-09T15:38:13.225Z,18.00
2019-03-09T15:40:43.548Z,20.40
2019-03-09T15:43:14.088Z,8.17
2019-03-09T15:45:44.500Z,5.77
2019-03-09T15:48:14.867Z,3.90
2019-03-09T15:50:45.386Z,4.07
2019-03-09T15:53:15.805Z,3.53
2019-03-09T15:55:46.281Z,3.50
2019-03-09T15:58:17.442Z,3.60
2019-03-09T16:00:47.910Z,3.43
2019-03-09T16:03:18.293Z,9.70
2019-03-09T16:05:48.657Z,4.33
2019-03-09T16:08:19.263Z,12.70
2019-03-09T16:10:50.243Z,5.57
2019-03-09T16:13:20.768Z,4.47
2019-03-09T16:15:51.055Z,6.63
2019-03-09T16:18:21.614Z,11.03
2019-03-09T16:20:52.113Z,9.97
2019-03-09T16:23:23.228Z,3.73
2019-03-09T16:25:53.617Z,5.63
2019-03-09T16:28:24.161Z,6.73
2019-03-09T16:30:54.576Z,6.03
2019-03-09T16:33:25.115Z,6.90
2019-03-09T16:35:55.675Z,11.97
2019-03-09T16:38:26.134Z,6.70
2019-03-09T16:40:56.655Z,5.40
2019-03-09T16:43:27.209Z,5.03
2019-03-09T16:45:57.881Z,10.50
2019-03-09T16:48:30.780Z,8.07
2019-03-09T16:51:01.298Z,4.80
2019-03-09T16:53:32.309Z,5.70
2019-03-09T16:56:02.872Z,5.00
2019-03-09T16:58:33.195Z,4.73
2019-03-09T17:01:03.604Z,7.50
2019-03-09T17:03:37.652Z,9.17
2019-03-09T17:06:08.115Z,6.80
2019-03-09T17:08:38.598Z,17.90
2019-03-09T17:11:09.005Z,7.43
2019-03-09T17:13:41.878Z,7.20
2019-03-09T17:16:13.597Z,6.10
2019-03-09T17:18:44.002Z,5.30
2019-03-09T17:21:14.365Z,4.33
2019-03-09T17:23:45.022Z,5.17
2019-03-09T17:26:16.740Z,5.60
2019-03-09T17:28:47.391Z,4.97
2019-03-09T17:31:17.810Z,4.87
2019-03-09T17:33:48.265Z,5.03
2019-03-09T17:36:18.944Z,5.67
2019-03-09T17:38:52.226Z,4.40
2019-03-09T17:41:25.341Z,4.23
2019-03-09T17:43:55.872Z,4.07
2019-03-09T17:46:26.396Z,4.53
2019-03-09T17:48:59.892Z,3.90
2019-03-09T17:51:30.656Z,4.20
2019-03-09T17:54:01.339Z,4.07
2019-03-09T17:56:33.933Z,4.43
2019-03-09T17:59:04.659Z,4.43
2019-03-09T18:01:35.271Z,4.07
2019-03-09T18:04:06.165Z,3.30
2019-03-09T18:06:36.607Z,4.30
2019-03-09T18:09:08.831Z,4.30
2019-03-09T18:11:40.730Z,4.07
2019-03-09T18:14:11.128Z,4.70
2019-03-09T18:16:41.608Z,3.77
2019-03-09T18:19:12.148Z,4.50
2019-03-09T18:21:42.699Z,4.57
2019-03-09T18:24:13.475Z,4.07
2019-03-09T18:26:43.989Z,5.00
2019-03-09T18:29:14.556Z,4.50
2019-03-09T18:31:45.007Z,4.50
2019-03-09T18:34:15.792Z,5.17
2019-03-09T18:36:46.254Z,5.20
2019-03-09T18:39:16.858Z,4.10
2019-03-09T18:41:47.550Z,4.57
2019-03-09T18:44:18.133Z,5.00
2019-03-09T18:46:48.622Z,4.33
2019-03-09T18:49:19.026Z,4.50
2019-03-09T18:51:49.497Z,4.53
2019-03-09T18:54:19.964Z,3.90
2019-03-09T18:56:50.601Z,3.53
2019-03-09T18:59:21.529Z,3.90
2019-03-09T19:01:53.601Z,4.77
2019-03-09T19:04:24.216Z,4.00
2019-03-09T19:06:54.759Z,4.17
2019-03-09T19:09:27.317Z,3.60
2019-03-09T19:11:57.831Z,3.80
2019-03-09T19:14:28.773Z,3.87
2019-03-09T19:16:59.312Z,3.77
2019-03-09T19:19:29.878Z,3.40
2019-03-09T19:22:00.377Z,4.13
2019-03-09T19:24:30.853Z,5.20
2019-03-09T19:27:01.214Z,4.57
2019-03-09T19:29:31.610Z,4.33
2019-03-09T19:32:02.111Z,4.93
2019-03-09T19:34:32.458Z,4.70
2019-03-09T19:37:02.897Z,3.90
2019-03-09T19:39:33.420Z,3.70
2019-03-09T19:42:03.974Z,4.13
2019-03-09T19:44:34.432Z,3.70
2019-03-09T19:47:04.857Z,3.53
2019-03-09T19:49:35.402Z,3.30
2019-03-09T19:52:07.464Z,3.67
2019-03-09T19:54:37.959Z,3.70
2019-03-09T19:57:08.484Z,3.80
2019-03-09T19:59:38.863Z,4.30
2019-03-09T20:02:09.316Z,3.70
2019-03-09T20:04:39.778Z,4.10
2019-03-09T20:07:10.313Z,4.00
2019-03-09T20:09:40.827Z,4.13
2019-03-09T20:12:11.203Z,4.20
2019-03-09T20:14:41.722Z,4.40
2019-03-09T20:17:12.165Z,5.20
2019-03-09T20:19:42.524Z,4.87
2019-03-09T20:22:12.869Z,5.20
2019-03-09T20:24:43.279Z,4.70
2019-03-09T20:27:13.768Z,8.40
2019-03-09T20:29:44.129Z,6.13
2019-03-09T20:32:14.650Z,4.83
2019-03-09T20:34:45.061Z,5.67
2019-03-09T20:37:15.471Z,5.33
2019-03-09T20:39:46.039Z,4.50
2019-03-09T20:42:16.572Z,4.63
2019-03-09T20:44:46.891Z,4.30
2019-03-09T20:47:17.315Z,4.60
2019-03-09T20:49:47.857Z,4.33
2019-03-09T20:52:18.262Z,4.17
2019-03-09T20:54:48.601Z,3.90
2019-03-09T20:57:18.867Z,4.93
2019-03-09T20:59:49.378Z,4.10
2019-03-09T21:02:19.840Z,4.63
2019-03-09T21:04:50.295Z,4.60
2019-03-09T21:07:20.727Z,4.93
2019-03-09T21:09:51.139Z,5.33
2019-03-09T21:12:21.629Z,4.87
2019-03-09T21:14:52.147Z,5.40
2019-03-09T21:17:22.609Z,5.10
2019-03-09T21:19:53.069Z,4.83
2019-03-09T21:22:23.566Z,4.87
2019-03-09T21:24:54.006Z,5.23
2019-03-09T21:27:24.460Z,5.37
2019-03-09T21:29:54.974Z,5.57
2019-03-09T21:32:25.362Z,4.87
2019-03-09T21:34:55.831Z,4.83
2019-03-09T21:37:27.015Z,5.20
2019-03-09T21:39:57.706Z,5.37
2019-03-09T21:42:28.053Z,5.67
2019-03-09T21:44:58.529Z,5.17
2019-03-09T21:47:28.988Z,5.03
2019-03-09T21:49:59.422Z,5.07
2019-03-09T21:52:29.917Z,4.57
2019-03-09T21:55:00.336Z,5.50
2019-03-09T21:57:30.712Z,5.27
2019-03-09T22:00:01.292Z,5.90
2019-03-09T22:02:31.764Z,5.10
2019-03-09T22:05:02.074Z,5.23
2019-03-09T22:07:32.470Z,5.40
2019-03-09T22:10:02.964Z,4.97
2019-03-09T22:12:33.452Z,5.20
2019-03-09T22:15:03.879Z,5.03
2019-03-09T22:17:34.370Z,4.93
2019-03-09T22:20:05.136Z,5.20
2019-03-09T22:22:35.584Z,5.53
2019-03-09T22:25:06.394Z,5.67
2019-03-09T22:27:36.588Z,5.07
2019-03-09T22:30:08.262Z,5.27
2019-03-09T22:32:38.797Z,5.13
2019-03-09T22:35:11.630Z,5.00
2019-03-09T22:37:41.946Z,5.10
2019-03-09T22:40:12.798Z,4.83
2019-03-09T22:42:43.162Z,4.83
2019-03-09T22:45:13.537Z,5.13
2019-03-09T22:47:44.151Z,4.90
2019-03-09T22:50:15.421Z,4.87
2019-03-09T22:52:45.983Z,4.67
2019-03-09T22:55:16.235Z,4.57
2019-03-09T22:57:46.708Z,4.80
2019-03-09T23:00:19.040Z,5.07
2019-03-09T23:02:49.633Z,5.07
2019-03-09T23:05:20.232Z,5.07
2019-03-09T23:07:50.689Z,4.43
2019-03-09T23:10:21.201Z,4.43
2019-03-09T23:12:51.711Z,4.60
2019-03-09T23:15:22.234Z,4.67
2019-03-09T23:17:52.903Z,4.77
2019-03-09T23:20:23.359Z,4.47
2019-03-09T23:22:53.746Z,4.70
2019-03-09T23:25:24.716Z,4.93
2019-03-09T23:27:55.108Z,4.63
2019-03-09T23:30:25.615Z,4.33
2019-03-09T23:32:55.962Z,4.47
2019-03-09T23:35:26.495Z,4.77
2019-03-09T23:37:56.995Z,4.57
2019-03-09T23:40:27.482Z,4.70
2019-03-09T23:42:57.813Z,4.13
2019-03-09T23:45:28.652Z,4.33
2019-03-09T23:47:59.479Z,4.33
2019-03-09T23:50:29.842Z,4.63
2019-03-09T23:53:00.289Z,4.53
2019-03-09T23:55:33.022Z,3.83
2019-03-09T23:58:03.421Z,3.97
